Aegean Navigator — SWBI — position and weather

sailwx.info

Track history (hours):
 
Tides and Currents Weather Stations Pressure Air Temp Water Temp Dewpoint Dewpoint Depression Visibility Wind Speed Wind Dir Waves Ship Positions

Aegean Navigator

Last reported at 2017-Jan-18 18:14 UTC. Time now 2017-Jan-20 20:08 UTC.
Position N 13°04' W 018°09'.

Length 274 m; draft 9.2 m.

Type: Ship. MMSI: 240634000.

Date/timePositionNaut miles runAvg speedWind from/ knotsBaromVisibWave heightAir tempDewpointWater temp
2017-Jan-18 18:14N 13°04' W 018°09'6411.0
2017-Jan-18 12:27N 14°08' W 018°07'1611.2
2017-Jan-18 11:04N 14°23' W 018°06'  
2017-Jan-15 03:31N 27°45' W 013°54'5510.9
2017-Jan-14 22:27N 28°28' W 013°15'1011.4
2017-Jan-14 21:33N 28°36' W 013°08'1211.2
2017-Jan-14 20:31N 28°46' W 013°01'57211.2
2017-Jan-12 17:23N 35°57' W 005°36'911.3
2017-Jan-12 16:33N 35°60' W 005°24'1211.5
2017-Jan-12 15:33N 36°04' W 005°11'3 0.2
2017-Jan-11 21:33N 36°07' W 005°11'1 1.4
2017-Jan-11 20:33N 36°07' W 005°09'2 1.4
2017-Jan-11 19:21N 36°08' W 005°07'1 1.1
2017-Jan-11 18:31N 36°08' W 005°06'5 3.6
2017-Jan-11 17:14N 36°06' W 005°11'710.7
2017-Jan-11 16:33N 36°05' W 005°20'6 5.7
2017-Jan-11 15:32N 36°09' W 005°24'0 0.1
2017-Jan-11 14:32N 36°09' W 005°24'0 0.0
2017-Jan-11 13:29N 36°09' W 005°24'0 0.0
2017-Jan-11 12:32N 36°09' W 005°24'0 0.0
2017-Jan-11 11:32N 36°09' W 005°24'0 0.2
2017-Jan-11 10:32N 36°09' W 005°24'0 0.1
2017-Jan-11 09:32N 36°09' W 005°24'0 0.1
2017-Jan-11 08:32N 36°09' W 005°24'0 0.0
2017-Jan-11 07:32N 36°09' W 005°24'0 0.0
2017-Jan-11 06:32N 36°09' W 005°24'0 0.0
2017-Jan-11 05:32N 36°09' W 005°24'0 0.0
2017-Jan-11 04:32N 36°09' W 005°24'0 0.0
2017-Jan-11 03:32N 36°09' W 005°24'0 0.0
2017-Jan-11 02:29N 36°09' W 005°24'0 0.0
2017-Jan-11 01:32N 36°09' W 005°24'0 0.0
2017-Jan-11 00:32N 36°09' W 005°24'0 0.0
2017-Jan-10 23:32N 36°09' W 005°24'0 0.0
2017-Jan-10 22:32N 36°09' W 005°24'0 0.0
2017-Jan-10 21:32N 36°09' W 005°24'0 0.1
2017-Jan-10 20:32N 36°09' W 005°24'0 0.1
2017-Jan-10 19:32N 36°09' W 005°24'0 0.0
2017-Jan-10 18:32N 36°09' W 005°24'0 0.1
2017-Jan-10 16:32N 36°09' W 005°24'0 0.1
2017-Jan-10 15:32N 36°09' W 005°24'0 0.1
2017-Jan-10 14:23N 36°09' W 005°24'0 0.1
2017-Jan-10 13:32N 36°09' W 005°24'0 0.1
2017-Jan-10 12:26N 36°09' W 005°24'0 0.1
2017-Jan-10 11:32N 36°09' W 005°24'0 0.0
2017-Jan-10 10:32N 36°09' W 005°24'0 0.1
2017-Jan-10 09:20N 36°09' W 005°24'0 0.1
2017-Jan-10 08:32N 36°09' W 005°24'0 0.1
2017-Jan-10 07:32N 36°09' W 005°24'0 0.0
2017-Jan-10 06:32N 36°09' W 005°24'0 0.1
2017-Jan-10 05:29N 36°09' W 005°24'0 0.0
2017-Jan-10 04:32N 36°09' W 005°24'0 0.0
2017-Jan-10 03:32N 36°09' W 005°24'0 0.0
2017-Jan-10 02:32N 36°09' W 005°24'0 0.0
2017-Jan-10 01:23N 36°09' W 005°24'0 0.1
2017-Jan-10 00:29N 36°09' W 005°24'0 0.0
2017-Jan-09 23:29N 36°09' W 005°24'0 0.0
2017-Jan-09 22:23N 36°09' W 005°24'0 0.2
2017-Jan-09 21:29N 36°09' W 005°24'0 0.0
2017-Jan-09 20:32N 36°09' W 005°24'0 0.1
2017-Jan-09 19:32N 36°09' W 005°24'0 0.1
2017-Jan-09 17:29N 36°09' W 005°25'0 0.2
2017-Jan-09 16:32N 36°09' W 005°25'0 0.1
2017-Jan-09 15:32N 36°09' W 005°24'0 0.0
2017-Jan-09 14:32N 36°09' W 005°24'0 0.1
2017-Jan-09 13:26N 36°09' W 005°25'0 0.1
2017-Jan-09 09:05N 36°09' W 005°24'0 0.1
2017-Jan-09 08:32N 36°09' W 005°24'0 0.1
2017-Jan-09 07:32N 36°09' W 005°24'0 0.3
2017-Jan-09 06:33N 36°09' W 005°25'0 0.4
2017-Jan-09 05:31N 36°10' W 005°25'0 0.0
2017-Jan-09 04:31N 36°10' W 005°25'0 0.0
2017-Jan-09 03:31N 36°10' W 005°25'0 0.0
2017-Jan-09 02:31N 36°10' W 005°25'0 0.0
2017-Jan-09 01:31N 36°10' W 005°25'0 0.0
2017-Jan-09 00:28N 36°10' W 005°25'0 0.0
2017-Jan-08 23:31N 36°10' W 005°25'0 0.0
2017-Jan-08 22:31N 36°10' W 005°25'  
Track history (hours):
 
Tides and Currents Weather Stations Pressure Air Temp Water Temp Dewpoint Dewpoint Depression Visibility Wind Speed Wind Dir Waves Ship Positions

Aegean Navigator

Last reported at 2017-Jan-18 18:14 UTC. Time now 2017-Jan-20 20:08 UTC.
Position N 13°04' W 018°09'.

Length 274 m; draft 9.2 m.

Type: Ship. MMSI: 240634000.

Date/timePositionNaut miles runAvg speedWind from/ knotsBaromVisibWave heightAir tempDewpointWater temp
2017-Jan-18 18:14N 13°04' W 018°09'6411.0
2017-Jan-18 12:27N 14°08' W 018°07'1611.2
2017-Jan-18 11:04N 14°23' W 018°06'  
2017-Jan-15 03:31N 27°45' W 013°54'5510.9
2017-Jan-14 22:27N 28°28' W 013°15'1011.4
2017-Jan-14 21:33N 28°36' W 013°08'1211.2
2017-Jan-14 20:31N 28°46' W 013°01'57211.2
2017-Jan-12 17:23N 35°57' W 005°36'911.3
2017-Jan-12 16:33N 35°60' W 005°24'1211.5
2017-Jan-12 15:33N 36°04' W 005°11'3 0.2
2017-Jan-11 21:33N 36°07' W 005°11'1 1.4
2017-Jan-11 20:33N 36°07' W 005°09'2 1.4
2017-Jan-11 19:21N 36°08' W 005°07'1 1.1
2017-Jan-11 18:31N 36°08' W 005°06'5 3.6
2017-Jan-11 17:14N 36°06' W 005°11'710.7
2017-Jan-11 16:33N 36°05' W 005°20'6 5.7
2017-Jan-11 15:32N 36°09' W 005°24'0 0.1
2017-Jan-11 14:32N 36°09' W 005°24'0 0.0
2017-Jan-11 13:29N 36°09' W 005°24'0 0.0
2017-Jan-11 12:32N 36°09' W 005°24'0 0.0
2017-Jan-11 11:32N 36°09' W 005°24'0 0.2
2017-Jan-11 10:32N 36°09' W 005°24'0 0.1
2017-Jan-11 09:32N 36°09' W 005°24'0 0.1
2017-Jan-11 08:32N 36°09' W 005°24'0 0.0
2017-Jan-11 07:32N 36°09' W 005°24'0 0.0
2017-Jan-11 06:32N 36°09' W 005°24'0 0.0
2017-Jan-11 05:32N 36°09' W 005°24'0 0.0
2017-Jan-11 04:32N 36°09' W 005°24'0 0.0
2017-Jan-11 03:32N 36°09' W 005°24'0 0.0
2017-Jan-11 02:29N 36°09' W 005°24'0 0.0
2017-Jan-11 01:32N 36°09' W 005°24'0 0.0
2017-Jan-11 00:32N 36°09' W 005°24'0 0.0
2017-Jan-10 23:32N 36°09' W 005°24'0 0.0
2017-Jan-10 22:32N 36°09' W 005°24'0 0.0
2017-Jan-10 21:32N 36°09' W 005°24'0 0.1
2017-Jan-10 20:32N 36°09' W 005°24'0 0.1
2017-Jan-10 19:32N 36°09' W 005°24'0 0.0
2017-Jan-10 18:32N 36°09' W 005°24'0 0.1
2017-Jan-10 16:32N 36°09' W 005°24'0 0.1
2017-Jan-10 15:32N 36°09' W 005°24'0 0.1
2017-Jan-10 14:23N 36°09' W 005°24'0 0.1
2017-Jan-10 13:32N 36°09' W 005°24'0 0.1
2017-Jan-10 12:26N 36°09' W 005°24'0 0.1
2017-Jan-10 11:32N 36°09' W 005°24'0 0.0
2017-Jan-10 10:32N 36°09' W 005°24'0 0.1
2017-Jan-10 09:20N 36°09' W 005°24'0 0.1
2017-Jan-10 08:32N 36°09' W 005°24'0 0.1
2017-Jan-10 07:32N 36°09' W 005°24'0 0.0
2017-Jan-10 06:32N 36°09' W 005°24'0 0.1
2017-Jan-10 05:29N 36°09' W 005°24'0 0.0
2017-Jan-10 04:32N 36°09' W 005°24'0 0.0
2017-Jan-10 03:32N 36°09' W 005°24'0 0.0
2017-Jan-10 02:32N 36°09' W 005°24'0 0.0
2017-Jan-10 01:23N 36°09' W 005°24'0 0.1
2017-Jan-10 00:29N 36°09' W 005°24'0 0.0
2017-Jan-09 23:29N 36°09' W 005°24'0 0.0
2017-Jan-09 22:23N 36°09' W 005°24'0 0.2
2017-Jan-09 21:29N 36°09' W 005°24'0 0.0
2017-Jan-09 20:32N 36°09' W 005°24'0 0.1
2017-Jan-09 19:32N 36°09' W 005°24'0 0.1
2017-Jan-09 17:29N 36°09' W 005°25'0 0.2
2017-Jan-09 16:32N 36°09' W 005°25'0 0.1
2017-Jan-09 15:32N 36°09' W 005°24'0 0.0
2017-Jan-09 14:32N 36°09' W 005°24'0 0.1
2017-Jan-09 13:26N 36°09' W 005°25'0 0.1
2017-Jan-09 09:05N 36°09' W 005°24'0 0.1
2017-Jan-09 08:32N 36°09' W 005°24'0 0.1
2017-Jan-09 07:32N 36°09' W 005°24'0 0.3
2017-Jan-09 06:33N 36°09' W 005°25'0 0.4
2017-Jan-09 05:31N 36°10' W 005°25'0 0.0
2017-Jan-09 04:31N 36°10' W 005°25'0 0.0
2017-Jan-09 03:31N 36°10' W 005°25'0 0.0
2017-Jan-09 02:31N 36°10' W 005°25'0 0.0
2017-Jan-09 01:31N 36°10' W 005°25'0 0.0
2017-Jan-09 00:28N 36°10' W 005°25'0 0.0
2017-Jan-08 23:31N 36°10' W 005°25'0 0.0
2017-Jan-08 22:31N 36°10' W 005°25'  

Dump ship's entire track history